N02427 LOWS-LOWI
Flight info
| Callsign | N02427 |
|---|---|
| Flight time | N/A |
| Altitude | 12000 |
| Route | EDJG DCT ZUREX DCT LOIK DCT RTT |
| Aircraft | DA62/L-SDFGRY/C |
Departure
| Time | N/A |
|---|---|
| Airport | Salzburg Airport (LOWS) |
Arrival
| Time | 2026-05-08 08:37 |
|---|---|
| Airport | Innsbruck Airport (LOWI) |
| Time | Latitude | Longitude | Altitude | Speed | Heading |
|---|---|---|---|---|---|
| 2026-05-08 08:16 | 47.69806 | 12.20023 | 10721 ft | 119 kts | 204° |
| 2026-05-08 08:16 | 47.69027 | 12.19598 | 10841 ft | 119 kts | 204° |
| 2026-05-08 08:17 | 47.68254 | 12.19178 | 10962 ft | 120 kts | 204° |
| 2026-05-08 08:17 | 47.67631 | 12.18839 | 11076 ft | 120 kts | 204° |
| 2026-05-08 08:17 | 47.66845 | 12.18411 | 11225 ft | 120 kts | 204° |
| 2026-05-08 08:17 | 47.66060 | 12.17983 | 11354 ft | 121 kts | 204° |
| 2026-05-08 08:18 | 47.65271 | 12.17554 | 11477 ft | 121 kts | 204° |
| 2026-05-08 08:18 | 47.64481 | 12.17126 | 11615 ft | 121 kts | 204° |
| 2026-05-08 08:18 | 47.63692 | 12.16697 | 11756 ft | 121 kts | 204° |
| 2026-05-08 08:18 | 47.62899 | 12.16268 | 11896 ft | 121 kts | 204° |
| 2026-05-08 08:19 | 47.62117 | 12.15841 | 12030 ft | 121 kts | 204° |
| 2026-05-08 08:19 | 47.61310 | 12.15401 | 12081 ft | 128 kts | 204° |
| 2026-05-08 08:19 | 47.60448 | 12.14934 | 12092 ft | 136 kts | 204° |
| 2026-05-08 08:19 | 47.59539 | 12.14439 | 12095 ft | 142 kts | 203° |
| 2026-05-08 08:20 | 47.58604 | 12.13933 | 12100 ft | 145 kts | 203° |
| 2026-05-08 08:20 | 47.57645 | 12.13414 | 12094 ft | 149 kts | 202° |
| 2026-05-08 08:20 | 47.56661 | 12.12867 | 12096 ft | 152 kts | 206° |
| 2026-05-08 08:20 | 47.55828 | 12.11921 | 12098 ft | 152 kts | 226° |
| 2026-05-08 08:21 | 47.55072 | 12.10847 | 12096 ft | 153 kts | 225° |
| 2026-05-08 08:21 | 47.54297 | 12.09757 | 12093 ft | 154 kts | 225° |
| 2026-05-08 08:21 | 47.53517 | 12.08659 | 12094 ft | 155 kts | 225° |
| 2026-05-08 08:21 | 47.52735 | 12.07556 | 12093 ft | 155 kts | 225° |
| 2026-05-08 08:22 | 47.51951 | 12.06452 | 12091 ft | 156 kts | 225° |
| 2026-05-08 08:22 | 47.51166 | 12.05347 | 12096 ft | 156 kts | 225° |
| 2026-05-08 08:22 | 47.50379 | 12.04239 | 12096 ft | 156 kts | 225° |
| 2026-05-08 08:22 | 47.49601 | 12.03145 | 12091 ft | 156 kts | 225° |
| 2026-05-08 08:23 | 47.48813 | 12.02036 | 12097 ft | 157 kts | 225° |
| 2026-05-08 08:23 | 47.48021 | 12.00924 | 12096 ft | 157 kts | 225° |
| 2026-05-08 08:23 | 47.47231 | 11.99813 | 12096 ft | 157 kts | 225° |
| 2026-05-08 08:23 | 47.46568 | 11.98556 | 12087 ft | 156 kts | 244° |
| 2026-05-08 08:24 | 47.46073 | 11.97051 | 11813 ft | 171 kts | 244° |
| 2026-05-08 08:24 | 47.45553 | 11.95581 | 11566 ft | 142 kts | 242° |
| 2026-05-08 08:24 | 47.45130 | 11.94460 | 11381 ft | 111 kts | 242° |
| 2026-05-08 08:24 | 47.44782 | 11.93543 | 11254 ft | 104 kts | 242° |
| 2026-05-08 08:25 | 47.44392 | 11.92498 | 11084 ft | 131 kts | 242° |
| 2026-05-08 08:25 | 47.43903 | 11.91193 | 10576 ft | 168 kts | 242° |
| 2026-05-08 08:25 | 47.43335 | 11.89804 | 9949 ft | 143 kts | 238° |
| 2026-05-08 08:25 | 47.42823 | 11.88646 | 9156 ft | 138 kts | 239° |
| 2026-05-08 08:26 | 47.42277 | 11.87411 | 8116 ft | 145 kts | 236° |
| 2026-05-08 08:26 | 47.41739 | 11.86163 | 7313 ft | 139 kts | 240° |
| 2026-05-08 08:26 | 47.41301 | 11.84969 | 6664 ft | 134 kts | 240° |
| 2026-05-08 08:26 | 47.40809 | 11.83824 | 5992 ft | 134 kts | 235° |
| 2026-05-08 08:27 | 47.40257 | 11.82640 | 5619 ft | 147 kts | 240° |
| 2026-05-08 08:27 | 47.39998 | 11.81193 | 5559 ft | 146 kts | 258° |
| 2026-05-08 08:27 | 47.39604 | 11.79827 | 5559 ft | 147 kts | 245° |
| 2026-05-08 08:27 | 47.39119 | 11.78505 | 5557 ft | 146 kts | 243° |
| 2026-05-08 08:28 | 47.38626 | 11.77199 | 5556 ft | 145 kts | 243° |
| 2026-05-08 08:28 | 47.38138 | 11.75905 | 5555 ft | 144 kts | 242° |
| 2026-05-08 08:28 | 47.37650 | 11.74619 | 5553 ft | 143 kts | 242° |
| 2026-05-08 08:28 | 47.37167 | 11.73344 | 5553 ft | 142 kts | 243° |
| 2026-05-08 08:29 | 47.36686 | 11.72070 | 5550 ft | 142 kts | 243° |
| 2026-05-08 08:29 | 47.36206 | 11.70803 | 5550 ft | 141 kts | 242° |
| 2026-05-08 08:29 | 47.35733 | 11.69558 | 5551 ft | 141 kts | 242° |
| 2026-05-08 08:29 | 47.35253 | 11.68291 | 5611 ft | 142 kts | 240° |
| 2026-05-08 08:30 | 47.34770 | 11.67017 | 5611 ft | 142 kts | 240° |
| 2026-05-08 08:30 | 47.34285 | 11.65740 | 5610 ft | 143 kts | 240° |
| 2026-05-08 08:30 | 47.33312 | 11.63179 | 5610 ft | 143 kts | 241° |
| 2026-05-08 08:31 | 47.32825 | 11.61898 | 5608 ft | 143 kts | 241° |
| 2026-05-08 08:31 | 47.32336 | 11.60613 | 5608 ft | 144 kts | 241° |
| 2026-05-08 08:31 | 47.31845 | 11.59322 | 5561 ft | 147 kts | 240° |
| 2026-05-08 08:31 | 47.31329 | 11.57966 | 5346 ft | 157 kts | 241° |
| 2026-05-08 08:32 | 47.30788 | 11.56543 | 5111 ft | 164 kts | 241° |
| 2026-05-08 08:32 | 47.30220 | 11.55055 | 4862 ft | 168 kts | 241° |
| 2026-05-08 08:32 | 47.29648 | 11.53553 | 4611 ft | 169 kts | 241° |
| 2026-05-08 08:32 | 47.29071 | 11.52041 | 4366 ft | 170 kts | 241° |
| 2026-05-08 08:33 | 47.28487 | 11.50520 | 4093 ft | 168 kts | 241° |
| 2026-05-08 08:33 | 47.27970 | 11.49054 | 3834 ft | 153 kts | 244° |
| 2026-05-08 08:33 | 47.27586 | 11.47753 | 3562 ft | 123 kts | 248° |
| 2026-05-08 08:33 | 47.27320 | 11.46648 | 3275 ft | 105 kts | 253° |
| 2026-05-08 08:34 | 47.27161 | 11.45649 | 3139 ft | 98 kts | 259° |
| 2026-05-08 08:34 | 47.27063 | 11.44667 | 3022 ft | 96 kts | 263° |
| 2026-05-08 08:34 | 47.26982 | 11.43705 | 2900 ft | 96 kts | 263° |
| 2026-05-08 08:34 | 47.26897 | 11.42745 | 2791 ft | 95 kts | 262° |
| 2026-05-08 08:35 | 47.26793 | 11.41805 | 2711 ft | 92 kts | 258° |
| 2026-05-08 08:35 | 47.26661 | 11.40884 | 2612 ft | 92 kts | 259° |
| 2026-05-08 08:35 | 47.26574 | 11.39941 | 2491 ft | 94 kts | 265° |
| 2026-05-08 08:35 | 47.26510 | 11.39017 | 2316 ft | 89 kts | 263° |
| 2026-05-08 08:36 | 47.26419 | 11.38128 | 2165 ft | 87 kts | 260° |
| 2026-05-08 08:36 | 47.26323 | 11.37271 | 2039 ft | 84 kts | 261° |
| 2026-05-08 08:36 | 47.26229 | 11.36418 | 1967 ft | 84 kts | 261° |
| 2026-05-08 08:36 | 47.26140 | 11.35573 | 1912 ft | 85 kts | 261° |
| 2026-05-08 08:37 | 47.26054 | 11.34778 | 1898 ft | 64 kts | 261° |
| 2026-05-08 08:37 | 47.25998 | 11.34246 | 1898 ft | 43 kts | 261° |
| 2026-05-08 08:37 | 47.25974 | 11.34014 | 1898 ft | 28 kts | 261° |